Time;durP1;ratioP1;P1;durP2;ratioP2;P2;SDS_P1;SDS_P2;PMS_P1;PMS_P2;Temp;Humidity;BMP_temperature;BMP_pressure;BME280_temperature;BME280_humidity;BME280_pressure;Samples;Min_cycle;Max_cycle;Signal;HPM_P1;HPM_P2
2021/05/04 00:02:26;;;;;;;4.43;2.40;;;;;;;;;;10335809;28;20064;-58
2021/05/04 00:07:25;;;;;;;3.13;2.30;;;;;;;;;;10336322;28;20065;-58
2021/05/04 00:12:22;;;;;;;2.78;2.10;;;;;;;;;;10335120;28;20051;-58
2021/05/04 00:17:20;;;;;;;4.53;2.47;;;;;;;;;;10336927;28;20040;-59
2021/05/04 00:22:18;;;;;;;4.18;2.25;;;;;;;;;;10332387;28;20051;-58
2021/05/04 00:27:17;;;;;;;4.25;2.38;;;;;;;;;;10336960;28;20053;-58
2021/05/04 00:32:14;;;;;;;2.88;2.60;;;;;;;;;;10334902;28;20617;-59
2021/05/04 00:37:11;;;;;;;4.35;1.80;;;;;;;;;;10335534;28;20072;-59
2021/05/04 00:42:10;;;;;;;2.45;2.25;;;;;;;;;;10335865;28;20079;-59
2021/05/04 00:47:08;;;;;;;4.03;2.33;;;;;;;;;;10340046;28;20075;-58
2021/05/04 00:52:06;;;;;;;3.20;2.60;;;;;;;;;;10343416;28;20048;-58
2021/05/04 00:57:04;;;;;;;2.72;2.38;;;;;;;;;;10341161;28;20052;-58
2021/05/04 01:02:01;;;;;;;3.40;2.22;;;;;;;;;;10343130;28;20082;-58
2021/05/04 01:07:00;;;;;;;5.75;2.22;;;;;;;;;;10341349;28;20043;-58
2021/05/04 01:11:58;;;;;;;5.75;2.58;;;;;;;;;;10342446;28;20041;-58
2021/05/04 01:16:55;;;;;;;4.32;2.40;;;;;;;;;;10341659;28;20076;-58
2021/05/04 01:21:53;;;;;;;7.85;2.85;;;;;;;;;;10341899;28;20075;-58
2021/05/04 01:26:51;;;;;;;4.47;2.58;;;;;;;;;;10342177;28;20497;-58
2021/05/04 01:31:48;;;;;;;2.85;1.95;;;;;;;;;;10340526;28;20082;-58
2021/05/04 01:36:46;;;;;;;4.40;2.13;;;;;;;;;;10341742;28;20524;-58
2021/05/04 01:41:44;;;;;;;4.82;3.55;;;;;;;;;;10338755;28;20071;-59
2021/05/04 01:46:41;;;;;;;4.45;2.72;;;;;;;;;;10340522;28;20040;-59
2021/05/04 01:51:39;;;;;;;5.07;2.33;;;;;;;;;;10340469;28;20040;-58
2021/05/04 01:56:36;;;;;;;2.80;2.35;;;;;;;;;;10339021;28;20094;-59
2021/05/04 02:01:34;;;;;;;3.78;3.35;;;;;;;;;;10341344;28;20068;-58
2021/05/04 02:06:32;;;;;;;2.95;2.40;;;;;;;;;;10336144;28;20044;-59
2021/05/04 02:11:29;;;;;;;4.88;2.95;;;;;;;;;;10340307;28;20052;-59
2021/05/04 02:16:27;;;;;;;5.45;2.40;;;;;;;;;;10338962;28;20040;-58
2021/05/04 02:21:26;;;;;;;4.05;2.60;;;;;;;;;;10339124;28;20064;-58
2021/05/04 02:26:23;;;;;;;6.07;3.22;;;;;;;;;;10339632;28;20055;-59
2021/05/04 02:31:21;;;;;;;3.92;2.60;;;;;;;;;;10338313;28;20513;-59
2021/05/04 02:36:18;;;;;;;3.38;2.50;;;;;;;;;;10340502;28;20040;-58
2021/05/04 02:41:16;;;;;;;4.25;2.65;;;;;;;;;;10335825;28;20064;-59
2021/05/04 02:46:14;;;;;;;5.47;3.20;;;;;;;;;;10340011;28;20041;-58
2021/05/04 02:51:12;;;;;;;5.30;3.15;;;;;;;;;;10338433;28;20063;-59
2021/05/04 02:56:10;;;;;;;4.32;2.83;;;;;;;;;;10338827;28;20044;-58
2021/05/04 03:01:08;;;;;;;3.40;2.63;;;;;;;;;;10337449;28;20476;-58
2021/05/04 03:06:06;;;;;;;8.23;2.88;;;;;;;;;;10337692;28;20496;-59
2021/05/04 03:11:04;;;;;;;4.72;2.75;;;;;;;;;;10338739;28;20137;-58
2021/05/04 03:16:01;;;;;;;3.05;2.75;;;;;;;;;;10336942;28;20062;-59
2021/05/04 03:20:59;;;;;;;4.72;3.10;;;;;;;;;;10338779;28;20083;-58
2021/05/04 03:25:57;;;;;;;5.18;3.03;;;;;;;;;;10336576;28;20078;-59
2021/05/04 03:30:54;;;;;;;6.95;2.80;;;;;;;;;;10337621;28;20041;-59
2021/05/04 03:35:52;;;;;;;3.17;2.72;;;;;;;;;;10337417;28;20063;-58
2021/05/04 03:40:51;;;;;;;3.60;2.78;;;;;;;;;;10336403;28;20064;-60
2021/05/04 03:45:48;;;;;;;3.92;2.72;;;;;;;;;;10337515;28;20051;-59
2021/05/04 03:50:47;;;;;;;6.82;3.65;;;;;;;;;;10335150;28;20060;-59
2021/05/04 03:55:45;;;;;;;7.13;3.15;;;;;;;;;;10333703;28;20044;-59
2021/05/04 04:00:43;;;;;;;7.07;3.70;;;;;;;;;;10336104;28;20150;-58
2021/05/04 04:05:40;;;;;;;4.43;3.55;;;;;;;;;;10335933;28;20047;-59
2021/05/04 04:10:39;;;;;;;5.50;4.32;;;;;;;;;;10336507;28;20064;-59
2021/05/04 04:15:37;;;;;;;5.07;4.57;;;;;;;;;;10335644;28;20556;-58
2021/05/04 04:20:35;;;;;;;5.03;3.10;;;;;;;;;;10338957;28;20102;-56
2021/05/04 04:25:32;;;;;;;4.50;3.60;;;;;;;;;;10345231;28;20052;-58
2021/05/04 04:30:30;;;;;;;5.30;4.43;;;;;;;;;;10342186;28;20040;-58
2021/05/04 04:35:27;;;;;;;8.10;5.70;;;;;;;;;;10344993;28;20045;-58
2021/05/04 04:40:25;;;;;;;6.18;5.22;;;;;;;;;;10343296;28;20075;-58
2021/05/04 04:45:23;;;;;;;4.95;3.70;;;;;;;;;;10333960;28;20066;-59
2021/05/04 04:50:20;;;;;;;4.15;3.72;;;;;;;;;;10336842;28;20068;-59
2021/05/04 04:55:18;;;;;;;5.50;3.88;;;;;;;;;;10339640;28;20521;-59
2021/05/04 05:00:16;;;;;;;7.55;4.00;;;;;;;;;;10335478;28;20087;-59
2021/05/04 05:05:14;;;;;;;7.80;4.47;;;;;;;;;;10338954;28;20055;-59
2021/05/04 05:10:11;;;;;;;5.90;3.42;;;;;;;;;;10343598;28;20029;-59
2021/05/04 05:15:09;;;;;;;5.05;3.30;;;;;;;;;;10341933;28;20036;-59
2021/05/04 05:20:08;;;;;;;7.32;4.63;;;;;;;;;;10342721;28;20072;-59
2021/05/04 05:25:06;;;;;;;5.57;3.30;;;;;;;;;;10342192;28;20071;-58
2021/05/04 05:30:05;;;;;;;5.43;3.58;;;;;;;;;;10340591;28;20045;-58
2021/05/04 05:35:03;;;;;;;6.72;3.40;;;;;;;;;;10342231;28;20044;-59
2021/05/04 05:40:02;;;;;;;4.43;2.78;;;;;;;;;;10340454;28;20500;-60
2021/05/04 05:44:59;;;;;;;5.65;4.13;;;;;;;;;;10337781;28;20512;-59
2021/05/04 05:49:57;;;;;;;4.82;3.45;;;;;;;;;;10342028;28;20047;-59
2021/05/04 05:54:54;;;;;;;4.15;3.35;;;;;;;;;;10340088;28;20040;-59
2021/05/04 05:59:52;;;;;;;6.35;3.83;;;;;;;;;;10339496;28;20076;-59
2021/05/04 06:04:51;;;;;;;6.88;3.78;;;;;;;;;;10338330;28;20083;-59
2021/05/04 06:09:49;;;;;;;5.00;3.33;;;;;;;;;;10340210;28;20072;-59
2021/05/04 06:14:46;;;;;;;7.28;3.83;;;;;;;;;;10340341;28;20036;-59
2021/05/04 06:19:44;;;;;;;5.22;4.15;;;;;;;;;;10338011;28;20084;-59
2021/05/04 06:24:42;;;;;;;5.57;3.75;;;;;;;;;;10340359;28;20045;-58
2021/05/04 06:29:39;;;;;;;3.75;3.42;;;;;;;;;;10338066;28;20040;-59
2021/05/04 06:34:37;;;;;;;3.30;3.00;;;;;;;;;;10337984;28;20076;-59
2021/05/04 06:39:35;;;;;;;3.78;2.90;;;;;;;;;;10338818;28;20078;-59
2021/05/04 06:44:32;;;;;;;6.25;3.70;;;;;;;;;;10337194;28;20044;-60
2021/05/04 06:49:30;;;;;;;7.43;3.30;;;;;;;;;;10339193;28;20520;-60
2021/05/04 06:54:27;;;;;;;4.65;3.17;;;;;;;;;;10337518;28;20032;-60
2021/05/04 06:59:25;;;;;;;8.35;5.05;;;;;;;;;;10334143;28;20071;-59
2021/05/04 07:04:23;;;;;;;23.88;20.02;;;;;;;;;;10339069;28;20098;-59
2021/05/04 07:09:20;;;;;;;15.18;11.68;;;;;;;;;;10337676;28;20075;-59
2021/05/04 07:14:17;;;;;;;8.82;7.95;;;;;;;;;;10337240;28;20438;-60
2021/05/04 07:19:16;;;;;;;11.50;6.05;;;;;;;;;;10335843;28;20548;-59
2021/05/04 07:24:14;;;;;;;10.88;7.30;;;;;;;;;;10336836;28;20045;-59
2021/05/04 07:29:11;;;;;;;11.32;3.90;;;;;;;;;;10337955;28;20099;-59
2021/05/04 07:34:09;;;;;;;6.80;4.97;;;;;;;;;;10333067;28;20035;-59
2021/05/04 07:39:08;;;;;;;6.85;4.03;;;;;;;;;;10337948;28;20083;-59
2021/05/04 07:44:06;;;;;;;3.70;3.35;;;;;;;;;;10336250;28;20032;-57
2021/05/04 07:49:06;;;;;;;4.57;2.88;;;;;;;;;;10336200;28;20075;-58
2021/05/04 07:54:09;;;;;;;3.70;3.30;;;;;;;;;;10335643;28;20121;-58
2021/05/04 07:59:06;;;;;;;7.10;4.32;;;;;;;;;;10335813;28;20072;-59
2021/05/04 08:04:03;;;;;;;4.15;2.90;;;;;;;;;;10334612;28;20040;-59
2021/05/04 08:09:01;;;;;;;4.63;2.80;;;;;;;;;;10335817;28;20513;-59
2021/05/04 08:13:59;;;;;;;3.67;2.35;;;;;;;;;;10336965;28;20048;-59
2021/05/04 08:18:57;;;;;;;7.78;3.08;;;;;;;;;;10333409;28;20044;-59
2021/05/04 08:23:54;;;;;;;6.57;2.50;;;;;;;;;;10332779;28;20056;-59
2021/05/04 08:28:52;;;;;;;2.42;2.22;;;;;;;;;;10336414;28;20064;-59
2021/05/04 08:33:50;;;;;;;6.80;3.63;;;;;;;;;;10335261;28;20078;-59
2021/05/04 08:38:47;;;;;;;5.40;1.90;;;;;;;;;;10335676;28;20064;-59
2021/05/04 08:43:46;;;;;;;3.50;2.00;;;;;;;;;;10336272;28;20055;-59
2021/05/04 08:48:44;;;;;;;3.33;2.55;;;;;;;;;;10334981;28;20082;-59
2021/05/04 08:53:43;;;;;;;2.22;2.00;;;;;;;;;;10336405;28;20082;-59
2021/05/04 08:58:41;;;;;;;5.93;2.20;;;;;;;;;;10333435;28;20067;-59
2021/05/04 09:03:46;;;;;;;6.75;4.15;;;;;;;;;;10332944;28;20084;-59
2021/05/04 09:08:48;;;;;;;6.82;4.10;;;;;;;;;;10340334;28;20068;-59
2021/05/04 09:13:48;;;;;;;2.92;2.50;;;;;;;;;;10341751;28;20043;-59
2021/05/04 09:24:16;;;;;;;5.13;3.28;;;;;;;;;;10339180;28;20079;-59
2021/05/04 09:29:13;;;;;;;3.77;2.73;;;;;;;;;;10341570;28;20485;-59
2021/05/04 09:34:12;;;;;;;5.70;3.70;;;;;;;;;;10341666;28;20036;-59
2021/05/04 09:39:15;;;;;;;2.72;2.10;;;;;;;;;;10341044;28;20032;-59
2021/05/04 09:44:12;;;;;;;12.27;5.20;;;;;;;;;;10341201;28;20045;-59
2021/05/04 09:49:23;;;;;;;4.93;2.30;;;;;;;;;;10340738;28;20072;-59
2021/05/04 09:54:26;;;;;;;3.88;2.53;;;;;;;;;;10340037;28;20064;-59
2021/05/04 09:59:23;;;;;;;7.90;6.22;;;;;;;;;;10335913;28;20076;-61
2021/05/04 10:04:21;;;;;;;3.35;1.70;;;;;;;;;;10336567;28;20161;-58
2021/05/04 10:09:19;;;;;;;3.28;1.60;;;;;;;;;;10340582;28;20474;-58
2021/05/04 10:14:21;;;;;;;5.82;2.08;;;;;;;;;;10338900;28;20043;-59
2021/05/04 10:19:25;;;;;;;2.63;2.28;;;;;;;;;;10336273;28;20086;-58
2021/05/04 10:24:22;;;;;;;2.00;1.40;;;;;;;;;;10340125;28;20051;-58
2021/05/04 10:29:23;;;;;;;5.00;2.67;;;;;;;;;;10338691;28;20032;-59
2021/05/04 10:34:28;;;;;;;3.38;2.10;;;;;;;;;;10339391;28;20086;-59
2021/05/04 10:39:39;;;;;;;2.05;1.40;;;;;;;;;;10337585;28;20044;-59
2021/05/04 10:44:55;;;;;;;1.63;1.50;;;;;;;;;;10337100;28;20045;-59
2021/05/04 10:49:58;;;;;;;3.75;1.75;;;;;;;;;;10335183;28;20048;-59
2021/05/04 10:54:55;;;;;;;3.03;1.70;;;;;;;;;;10334605;28;20055;-59
2021/05/04 10:59:52;;;;;;;2.95;1.58;;;;;;;;;;10339137;28;20095;-59
2021/05/04 11:04:51;;;;;;;2.38;1.42;;;;;;;;;;10336650;28;20532;-60
2021/05/04 11:10:09;;;;;;;2.78;1.80;;;;;;;;;;10337997;28;20079;-59
2021/05/04 11:15:23;;;;;;;3.33;1.80;;;;;;;;;;10336844;28;20489;-60
2021/05/04 11:20:34;;;;;;;2.53;1.63;;;;;;;;;;10335960;28;20091;-60
2021/05/04 11:25:40;;;;;;;2.70;1.67;;;;;;;;;;10333931;28;20130;-59
2021/05/04 11:30:38;;;;;;;2.58;1.48;;;;;;;;;;10333673;28;20075;-58
2021/05/04 11:35:38;;;;;;;3.70;1.38;;;;;;;;;;10334259;28;20067;-59
2021/05/04 11:40:42;;;;;;;2.03;1.80;;;;;;;;;;10333896;28;20497;-59
2021/05/04 11:45:51;;;;;;;2.70;1.88;;;;;;;;;;10337698;28;20087;-60
2021/05/04 11:50:50;;;;;;;2.50;2.05;;;;;;;;;;10334648;28;20055;-58
2021/05/04 11:55:51;;;;;;;3.97;2.42;;;;;;;;;;10336410;28;20058;-58
2021/05/04 12:00:55;;;;;;;4.32;1.90;;;;;;;;;;10335825;28;20084;-59
2021/05/04 12:05:56;;;;;;;5.35;4.85;;;;;;;;;;10335404;28;20150;-59
2021/05/04 12:10:54;;;;;;;5.10;3.85;;;;;;;;;;10336705;28;20052;-58
2021/05/04 12:16:08;;;;;;;3.63;1.37;;;;;;;;;;10333340;28;20064;-58
2021/05/04 12:21:08;;;;;;;3.33;1.73;;;;;;;;;;10336282;28;20337;-59
2021/05/04 12:26:07;;;;;;;7.68;6.90;;;;;;;;;;10334815;28;20733;-58
2021/05/04 12:31:06;;;;;;;3.83;3.10;;;;;;;;;;10332366;28;20099;-58
2021/05/04 12:36:06;;;;;;;4.13;2.15;;;;;;;;;;10331821;28;20043;-59
2021/05/04 12:41:07;;;;;;;3.53;2.00;;;;;;;;;;10339428;28;20048;-59
2021/05/04 12:46:07;;;;;;;5.78;3.92;;;;;;;;;;10340310;28;20065;-59
2021/05/04 12:51:06;;;;;;;2.65;1.90;;;;;;;;;;10339183;28;20074;-60
2021/05/04 12:56:13;;;;;;;2.00;1.45;;;;;;;;;;10343448;28;20048;-59
2021/05/04 13:01:13;;;;;;;3.03;2.72;;;;;;;;;;10339518;28;20087;-58
2021/05/04 13:06:11;;;;;;;3.42;2.05;;;;;;;;;;10343288;28;20044;-60
2021/05/04 13:11:10;;;;;;;6.60;2.13;;;;;;;;;;10336278;28;20032;-59
2021/05/04 13:28:15;;;;;;;6.60;4.40;;;;;;;;;;10323234;28;20086;-60
2021/05/04 13:32:27;;;;;;;5.00;1.77;;;;;;;;;;10313451;28;20067;-58
2021/05/04 13:37:29;;;;;;;5.47;2.50;;;;;;;;;;10315136;28;20064;-58
2021/05/04 13:47:45;;;;;;;3.72;1.98;;;;;;;;;;10335677;28;20076;-59
2021/05/04 13:52:43;;;;;;;7.20;1.67;;;;;;;;;;10337260;28;20070;-59
2021/05/04 13:57:42;;;;;;;2.55;2.05;;;;;;;;;;10339881;28;20084;-58
2021/05/04 14:02:47;;;;;;;3.17;2.88;;;;;;;;;;10341107;28;20075;-58
2021/05/04 14:28:56;;;;;;;4.22;2.92;;;;;;;;;;10335764;28;20051;-60
2021/05/04 14:33:53;;;;;;;2.13;1.60;;;;;;;;;;10340735;28;20041;-59
2021/05/04 14:38:55;;;;;;;10.00;3.50;;;;;;;;;;10338896;28;20424;-59
2021/05/04 14:59:52;;;;;;;11.95;8.48;;;;;;;;;;10337617;28;20056;-59
2021/05/04 15:05:00;;;;;;;36.50;26.27;;;;;;;;;;10337911;28;20064;-59
2021/05/04 15:09:58;;;;;;;4.72;3.30;;;;;;;;;;10339367;28;20049;-59
2021/05/04 15:14:56;;;;;;;4.93;2.70;;;;;;;;;;10337597;28;20067;-59
2021/05/04 15:25:11;;;;;;;4.00;1.83;;;;;;;;;;10336281;28;20072;-59
2021/05/04 15:30:09;;;;;;;3.95;3.50;;;;;;;;;;10338356;28;20040;-59
2021/05/04 15:35:06;;;;;;;7.00;4.55;;;;;;;;;;10336609;28;20076;-59
2021/05/04 15:40:04;;;;;;;9.18;4.25;;;;;;;;;;10334392;28;20094;-59
2021/05/04 15:45:04;;;;;;;10.30;6.35;;;;;;;;;;10338222;28;20068;-59
2021/05/04 15:50:06;;;;;;;8.10;4.00;;;;;;;;;;10336109;28;20047;-59
2021/05/04 16:10:57;;;;;;;13.55;6.57;;;;;;;;;;10334357;28;20051;-60
2021/05/04 16:15:54;;;;;;;4.18;2.97;;;;;;;;;;10340973;28;20121;-58
2021/05/04 16:26:23;;;;;;;7.05;3.90;;;;;;;;;;10328392;28;20532;-60
2021/05/04 16:31:21;;;;;;;6.90;2.58;;;;;;;;;;10342759;28;20051;-60
2021/05/04 16:36:19;;;;;;;6.03;2.50;;;;;;;;;;10343812;28;20050;-60
2021/05/04 16:41:16;;;;;;;6.25;3.20;;;;;;;;;;10342686;28;20544;-59
2021/05/04 16:46:14;;;;;;;8.48;4.60;;;;;;;;;;10344000;28;20056;-59
2021/05/04 16:51:15;;;;;;;5.63;2.80;;;;;;;;;;10339755;28;20059;-59
2021/05/04 16:56:14;;;;;;;2.50;2.08;;;;;;;;;;10339100;28;20063;-59
2021/05/04 17:01:17;;;;;;;5.25;3.22;;;;;;;;;;10340267;28;20096;-59
2021/05/04 17:06:21;;;;;;;10.38;3.78;;;;;;;;;;10338456;28;20409;-59
2021/05/04 17:11:20;;;;;;;5.80;3.33;;;;;;;;;;10339272;28;20417;-59
2021/05/04 17:16:17;;;;;;;9.10;4.05;;;;;;;;;;10332254;28;20731;-59
2021/05/04 17:21:15;;;;;;;5.53;3.85;;;;;;;;;;10329746;28;20079;-59
2021/05/04 17:26:12;;;;;;;10.70;4.53;;;;;;;;;;10327165;28;20115;-59
2021/05/04 17:31:10;;;;;;;5.97;3.50;;;;;;;;;;10337518;28;20072;-59
2021/05/04 17:36:08;;;;;;;7.15;3.53;;;;;;;;;;10314582;28;20067;-58
2021/05/04 17:41:05;;;;;;;6.80;3.40;;;;;;;;;;10325172;28;20541;-59
2021/05/04 17:46:06;;;;;;;7.15;3.03;;;;;;;;;;10319179;28;20064;-59
2021/05/04 17:51:05;;;;;;;8.52;3.20;;;;;;;;;;10334890;28;20056;-58
2021/05/04 17:56:03;;;;;;;7.40;4.15;;;;;;;;;;10323877;28;20064;-60
2021/05/04 18:01:01;;;;;;;7.32;4.85;;;;;;;;;;10327943;28;20090;-60
2021/05/04 18:06:00;;;;;;;8.27;4.63;;;;;;;;;;10330549;28;20064;-60
2021/05/04 18:11:00;;;;;;;7.20;4.57;;;;;;;;;;10339136;28;20063;-60
2021/05/04 18:21:14;;;;;;;7.53;3.85;;;;;;;;;;10338086;28;20603;-58
2021/05/04 18:26:12;;;;;;;9.93;5.82;;;;;;;;;;10339604;28;20040;-59
2021/05/04 18:31:10;;;;;;;14.15;7.45;;;;;;;;;;10338242;28;20041;-59
2021/05/04 18:36:21;;;;;;;8.52;4.50;;;;;;;;;;10339815;28;20076;-59
2021/05/04 18:47:08;;;;;;;7.68;3.25;;;;;;;;;;10338214;28;20083;-60
2021/05/04 19:29:16;;;;;;;3.30;2.30;;;;;;;;;;10325791;28;20091;-59
2021/05/04 19:41:42;;;;;;;4.15;2.10;;;;;;;;;;10334374;28;20044;-60
2021/05/04 20:06:24;;;;;;;4.28;2.90;;;;;;;;;;10333740;28;20083;-59
2021/05/04 20:11:24;;;;;;;5.13;2.47;;;;;;;;;;10333341;28;20540;-60
2021/05/04 20:16:22;;;;;;;5.28;2.80;;;;;;;;;;10336545;28;20051;-58
2021/05/04 20:21:20;;;;;;;3.20;2.70;;;;;;;;;;10335059;28;20068;-59
2021/05/04 20:26:17;;;;;;;6.63;2.17;;;;;;;;;;10332115;28;20094;-57
2021/05/04 20:31:15;;;;;;;5.20;2.83;;;;;;;;;;10323581;28;20068;-57
2021/05/04 20:36:13;;;;;;;4.38;2.45;;;;;;;;;;10321045;28;20071;-58
2021/05/04 20:41:11;;;;;;;7.63;4.57;;;;;;;;;;10317581;28;20060;-59
2021/05/04 20:46:08;;;;;;;3.15;2.42;;;;;;;;;;10330115;28;20770;-59
2021/05/04 20:51:06;;;;;;;4.05;3.65;;;;;;;;;;10334197;28;20406;-59
2021/05/04 20:56:04;;;;;;;4.68;2.60;;;;;;;;;;10336033;28;20064;-58
2021/05/04 21:01:02;;;;;;;5.10;3.00;;;;;;;;;;10332720;28;20102;-58
2021/05/04 21:05:59;;;;;;;3.78;2.50;;;;;;;;;;10343189;28;20072;-57
2021/05/04 21:11:02;;;;;;;2.83;2.25;;;;;;;;;;10341887;28;20055;-58
2021/05/04 21:16:00;;;;;;;5.85;2.70;;;;;;;;;;10342649;28;20045;-59
2021/05/04 21:21:00;;;;;;;3.45;2.40;;;;;;;;;;10341969;28;20087;-58
2021/05/04 21:26:11;;;;;;;5.35;2.50;;;;;;;;;;10341632;28;20082;-59
2021/05/04 21:31:09;;;;;;;4.13;2.53;;;;;;;;;;10339083;28;20080;-58
2021/05/04 21:36:08;;;;;;;3.90;2.42;;;;;;;;;;10337864;28;20481;-59
2021/05/04 21:41:05;;;;;;;2.90;2.60;;;;;;;;;;10338569;28;20048;-58
2021/05/04 21:46:03;;;;;;;4.40;2.30;;;;;;;;;;10341394;28;20469;-59
2021/05/04 21:51:01;;;;;;;4.38;2.38;;;;;;;;;;10340551;28;20040;-59
2021/05/04 21:55:58;;;;;;;4.55;2.35;;;;;;;;;;10340785;28;20068;-59
2021/05/04 22:00:56;;;;;;;5.20;2.40;;;;;;;;;;10341327;28;20087;-58
2021/05/04 22:05:53;;;;;;;2.75;2.00;;;;;;;;;;10338936;28;20075;-59
2021/05/04 22:10:51;;;;;;;3.53;1.98;;;;;;;;;;10336479;28;20063;-59
2021/05/04 22:36:56;;;;;;;4.80;2.13;;;;;;;;;;10334368;28;20053;-59
2021/05/04 22:41:56;;;;;;;3.38;2.00;;;;;;;;;;10336140;28;20072;-59
2021/05/04 22:47:18;;;;;;;3.53;2.00;;;;;;;;;;10336108;28;20056;-59
2021/05/04 23:18:37;;;;;;;4.65;1.67;;;;;;;;;;10334659;28;20068;-59
2021/05/04 23:23:35;;;;;;;9.35;2.55;;;;;;;;;;10337977;28;20068;-59
2021/05/04 23:28:32;;;;;;;11.20;2.03;;;;;;;;;;10336261;28;20501;-59
2021/05/04 23:33:29;;;;;;;2.40;1.95;;;;;;;;;;10337615;28;20041;-59
2021/05/04 23:38:27;;;;;;;5.97;2.42;;;;;;;;;;10337409;28;20086;-59
2021/05/04 23:43:25;;;;;;;3.03;2.17;;;;;;;;;;10336172;28;20082;-59
2021/05/04 23:48:22;;;;;;;7.35;2.22;;;;;;;;;;10338206;28;20039;-59
2021/05/04 23:53:20;;;;;;;4.30;2.17;;;;;;;;;;10333517;28;20044;-59
2021/05/04 23:58:18;;;;;;;3.67;2.42;;;;;;;;;;10337166;28;20093;-59
